sensor_id;sensor_type;location;lat;lon;timestamp;temperature;humidity
59999;DHT22;45859;51.378;6.736;2022-07-03T00:00:42;18.80;99.90
59999;DHT22;45859;51.378;6.736;2022-07-03T00:03:08;18.80;99.90
59999;DHT22;45859;51.378;6.736;2022-07-03T00:05:34;18.70;99.90
59999;DHT22;45859;51.378;6.736;2022-07-03T00:08:00;18.70;99.90
59999;DHT22;45859;51.378;6.736;2022-07-03T00:10:26;18.70;99.90
59999;DHT22;45859;51.378;6.736;2022-07-03T00:12:51;18.70;99.90
59999;DHT22;45859;51.378;6.736;2022-07-03T00:15:17;18.60;99.90
59999;DHT22;45859;51.378;6.736;2022-07-03T00:17:43;18.60;99.90
59999;DHT22;45859;51.378;6.736;2022-07-03T00:20:09;18.50;99.90
59999;DHT22;45859;51.378;6.736;2022-07-03T00:22:37;18.50;99.90
59999;DHT22;45859;51.378;6.736;2022-07-03T00:25:07;18.50;99.90
59999;DHT22;45859;51.378;6.736;2022-07-03T00:27:34;18.50;99.90
59999;DHT22;45859;51.378;6.736;2022-07-03T00:30:01;18.50;99.90
59999;DHT22;45859;51.378;6.736;2022-07-03T00:32:28;18.50;99.90
59999;DHT22;45859;51.378;6.736;2022-07-03T00:34:55;18.50;99.90
59999;DHT22;45859;51.378;6.736;2022-07-03T00:37:22;18.50;99.90
59999;DHT22;45859;51.378;6.736;2022-07-03T00:39:48;18.60;99.90
59999;DHT22;45859;51.378;6.736;2022-07-03T00:42:15;18.60;99.90
59999;DHT22;45859;51.378;6.736;2022-07-03T00:44:52;18.60;99.90
59999;DHT22;45859;51.378;6.736;2022-07-03T00:47:20;18.60;99.90
59999;DHT22;45859;51.378;6.736;2022-07-03T00:49:51;18.60;99.90
59999;DHT22;45859;51.378;6.736;2022-07-03T00:52:18;18.60;99.90
59999;DHT22;45859;51.378;6.736;2022-07-03T00:54:54;18.60;99.90
59999;DHT22;45859;51.378;6.736;2022-07-03T00:57:21;18.50;99.90
59999;DHT22;45859;51.378;6.736;2022-07-03T00:59:50;18.50;99.90
59999;DHT22;45859;51.378;6.736;2022-07-03T01:05:26;18.40;99.90
59999;DHT22;45859;51.378;6.736;2022-07-03T01:08:12;18.30;99.90
59999;DHT22;45859;51.378;6.736;2022-07-03T01:13:53;18.10;99.90
59999;DHT22;45859;51.378;6.736;2022-07-03T01:16:37;18.00;99.90
59999;DHT22;45859;51.378;6.736;2022-07-03T01:27:30;17.70;99.90
59999;DHT22;45859;51.378;6.736;2022-07-03T01:30:08;17.70;99.90
59999;DHT22;45859;51.378;6.736;2022-07-03T01:32:58;17.80;99.90
59999;DHT22;45859;51.378;6.736;2022-07-03T01:35:32;17.70;99.90
59999;DHT22;45859;51.378;6.736;2022-07-03T01:38:02;17.70;99.90
59999;DHT22;45859;51.378;6.736;2022-07-03T01:40:29;17.60;99.90
59999;DHT22;45859;51.378;6.736;2022-07-03T01:42:56;17.60;99.90
59999;DHT22;45859;51.378;6.736;2022-07-03T01:45:27;17.50;99.90
59999;DHT22;45859;51.378;6.736;2022-07-03T01:47:56;17.50;99.90
59999;DHT22;45859;51.378;6.736;2022-07-03T01:50:25;17.40;99.90
59999;DHT22;45859;51.378;6.736;2022-07-03T01:52:52;17.40;99.90
59999;DHT22;45859;51.378;6.736;2022-07-03T01:55:19;17.40;99.90
59999;DHT22;45859;51.378;6.736;2022-07-03T01:57:50;17.30;99.90
59999;DHT22;45859;51.378;6.736;2022-07-03T02:00:21;17.30;99.90
59999;DHT22;45859;51.378;6.736;2022-07-03T02:03:00;17.20;99.90
59999;DHT22;45859;51.378;6.736;2022-07-03T02:11:18;17.20;99.90
59999;DHT22;45859;51.378;6.736;2022-07-03T02:16:19;17.10;99.90
59999;DHT22;45859;51.378;6.736;2022-07-03T02:18:55;17.00;99.90
59999;DHT22;45859;51.378;6.736;2022-07-03T02:21:26;17.00;99.90
59999;DHT22;45859;51.378;6.736;2022-07-03T02:26:33;16.90;99.90
59999;DHT22;45859;51.378;6.736;2022-07-03T02:29:08;16.90;99.90
59999;DHT22;45859;51.378;6.736;2022-07-03T02:31:45;16.90;99.90
59999;DHT22;45859;51.378;6.736;2022-07-03T02:34:17;16.80;99.90
59999;DHT22;45859;51.378;6.736;2022-07-03T02:36:45;16.80;99.90
59999;DHT22;45859;51.378;6.736;2022-07-03T02:39:16;16.80;99.90
59999;DHT22;45859;51.378;6.736;2022-07-03T02:42:02;16.70;99.90
59999;DHT22;45859;51.378;6.736;2022-07-03T02:44:45;16.60;99.90
59999;DHT22;45859;51.378;6.736;2022-07-03T02:50:05;16.70;99.90
59999;DHT22;45859;51.378;6.736;2022-07-03T02:55:39;16.60;99.90
59999;DHT22;45859;51.378;6.736;2022-07-03T02:58:11;16.60;99.90
59999;DHT22;45859;51.378;6.736;2022-07-03T03:00:42;16.50;99.90
59999;DHT22;45859;51.378;6.736;2022-07-03T03:03:13;16.50;99.90
59999;DHT22;45859;51.378;6.736;2022-07-03T03:05:49;16.50;99.90
59999;DHT22;45859;51.378;6.736;2022-07-03T03:11:08;16.40;99.90
59999;DHT22;45859;51.378;6.736;2022-07-03T03:13:35;16.40;99.90
59999;DHT22;45859;51.378;6.736;2022-07-03T03:16:06;16.40;99.90
59999;DHT22;45859;51.378;6.736;2022-07-03T03:18:35;16.30;99.90
59999;DHT22;45859;51.378;6.736;2022-07-03T03:21:04;16.20;99.90
59999;DHT22;45859;51.378;6.736;2022-07-03T03:23:50;16.20;99.90
59999;DHT22;45859;51.378;6.736;2022-07-03T03:26:20;16.20;99.90
59999;DHT22;45859;51.378;6.736;2022-07-03T03:28:47;16.20;99.90
59999;DHT22;45859;51.378;6.736;2022-07-03T03:31:14;16.10;99.90
59999;DHT22;45859;51.378;6.736;2022-07-03T03:33:42;16.00;99.90
59999;DHT22;45859;51.378;6.736;2022-07-03T03:36:09;16.00;99.90
59999;DHT22;45859;51.378;6.736;2022-07-03T03:38:37;16.00;99.90
59999;DHT22;45859;51.378;6.736;2022-07-03T03:41:03;16.00;99.90
59999;DHT22;45859;51.378;6.736;2022-07-03T03:43:30;16.00;99.90
59999;DHT22;45859;51.378;6.736;2022-07-03T03:45:56;16.10;99.90
59999;DHT22;45859;51.378;6.736;2022-07-03T03:48:22;16.10;99.90
59999;DHT22;45859;51.378;6.736;2022-07-03T03:50:48;16.10;99.90
59999;DHT22;45859;51.378;6.736;2022-07-03T03:53:14;16.20;99.90
59999;DHT22;45859;51.378;6.736;2022-07-03T03:58:18;16.20;99.90
59999;DHT22;45859;51.378;6.736;2022-07-03T04:00:44;16.20;99.90
59999;DHT22;45859;51.378;6.736;2022-07-03T04:03:10;16.30;99.90
59999;DHT22;45859;51.378;6.736;2022-07-03T04:05:36;16.40;99.90
59999;DHT22;45859;51.378;6.736;2022-07-03T04:08:01;16.30;99.90
59999;DHT22;45859;51.378;6.736;2022-07-03T04:10:27;16.40;99.90
59999;DHT22;45859;51.378;6.736;2022-07-03T04:12:53;16.40;99.90
59999;DHT22;45859;51.378;6.736;2022-07-03T04:15:18;16.50;99.90
59999;DHT22;45859;51.378;6.736;2022-07-03T04:17:44;16.70;99.90
59999;DHT22;45859;51.378;6.736;2022-07-03T04:20:13;16.80;99.90
59999;DHT22;45859;51.378;6.736;2022-07-03T04:22:38;16.80;99.90
59999;DHT22;45859;51.378;6.736;2022-07-03T04:25:04;17.00;99.90
59999;DHT22;45859;51.378;6.736;2022-07-03T04:27:30;17.10;99.90
59999;DHT22;45859;51.378;6.736;2022-07-03T04:29:55;17.20;99.90
59999;DHT22;45859;51.378;6.736;2022-07-03T04:32:21;17.30;99.90
59999;DHT22;45859;51.378;6.736;2022-07-03T04:34:47;17.40;99.90
59999;DHT22;45859;51.378;6.736;2022-07-03T04:37:12;17.60;99.90
59999;DHT22;45859;51.378;6.736;2022-07-03T04:39:38;17.70;99.90
59999;DHT22;45859;51.378;6.736;2022-07-03T04:42:04;17.80;99.90
59999;DHT22;45859;51.378;6.736;2022-07-03T04:44:29;17.90;99.90
59999;DHT22;45859;51.378;6.736;2022-07-03T04:46:55;18.00;99.90
59999;DHT22;45859;51.378;6.736;2022-07-03T04:49:21;18.10;99.90
59999;DHT22;45859;51.378;6.736;2022-07-03T04:51:47;18.20;99.90
59999;DHT22;45859;51.378;6.736;2022-07-03T04:54:12;18.30;99.90
59999;DHT22;45859;51.378;6.736;2022-07-03T04:56:38;18.30;99.90
59999;DHT22;45859;51.378;6.736;2022-07-03T04:59:03;18.50;99.90
59999;DHT22;45859;51.378;6.736;2022-07-03T05:01:29;18.60;99.90
59999;DHT22;45859;51.378;6.736;2022-07-03T05:03:55;18.70;99.90
59999;DHT22;45859;51.378;6.736;2022-07-03T05:06:20;18.80;99.90
59999;DHT22;45859;51.378;6.736;2022-07-03T05:08:46;18.90;99.90
59999;DHT22;45859;51.378;6.736;2022-07-03T05:11:12;19.10;99.90
59999;DHT22;45859;51.378;6.736;2022-07-03T05:13:38;19.10;99.90
59999;DHT22;45859;51.378;6.736;2022-07-03T05:16:03;19.20;99.90
59999;DHT22;45859;51.378;6.736;2022-07-03T05:18:29;19.30;99.90
59999;DHT22;45859;51.378;6.736;2022-07-03T05:20:55;19.50;99.90
59999;DHT22;45859;51.378;6.736;2022-07-03T05:23:21;19.60;99.90
59999;DHT22;45859;51.378;6.736;2022-07-03T05:25:46;19.80;99.90
59999;DHT22;45859;51.378;6.736;2022-07-03T05:28:12;19.90;99.90
59999;DHT22;45859;51.378;6.736;2022-07-03T05:30:38;20.00;99.90
59999;DHT22;45859;51.378;6.736;2022-07-03T05:33:03;20.20;99.90
59999;DHT22;45859;51.378;6.736;2022-07-03T05:35:29;20.20;99.90
59999;DHT22;45859;51.378;6.736;2022-07-03T05:37:55;20.40;99.90
59999;DHT22;45859;51.378;6.736;2022-07-03T05:40:21;20.60;99.90
59999;DHT22;45859;51.378;6.736;2022-07-03T05:42:46;20.70;99.90
59999;DHT22;45859;51.378;6.736;2022-07-03T05:45:12;20.80;99.90
59999;DHT22;45859;51.378;6.736;2022-07-03T05:47:38;21.10;99.90
59999;DHT22;45859;51.378;6.736;2022-07-03T05:50:04;21.40;99.90
59999;DHT22;45859;51.378;6.736;2022-07-03T05:52:30;22.10;99.90
59999;DHT22;45859;51.378;6.736;2022-07-03T05:54:55;23.60;99.90
59999;DHT22;45859;51.378;6.736;2022-07-03T05:57:21;24.80;99.90
59999;DHT22;45859;51.378;6.736;2022-07-03T05:59:47;26.10;99.90
59999;DHT22;45859;51.378;6.736;2022-07-03T06:02:12;27.30;99.90
59999;DHT22;45859;51.378;6.736;2022-07-03T06:04:38;28.00;99.90
59999;DHT22;45859;51.378;6.736;2022-07-03T06:07:04;28.60;99.90
59999;DHT22;45859;51.378;6.736;2022-07-03T06:09:30;29.00;99.90
59999;DHT22;45859;51.378;6.736;2022-07-03T06:11:55;30.20;99.90
59999;DHT22;45859;51.378;6.736;2022-07-03T06:14:21;30.20;99.90
59999;DHT22;45859;51.378;6.736;2022-07-03T06:16:47;30.80;99.90
59999;DHT22;45859;51.378;6.736;2022-07-03T06:19:13;31.60;99.90
59999;DHT22;45859;51.378;6.736;2022-07-03T06:21:38;31.50;99.90
59999;DHT22;45859;51.378;6.736;2022-07-03T06:24:04;31.40;99.90
59999;DHT22;45859;51.378;6.736;2022-07-03T06:26:30;31.80;99.90
59999;DHT22;45859;51.378;6.736;2022-07-03T06:28:56;31.80;99.90
59999;DHT22;45859;51.378;6.736;2022-07-03T06:31:22;32.40;99.90
59999;DHT22;45859;51.378;6.736;2022-07-03T06:33:47;32.10;99.90
59999;DHT22;45859;51.378;6.736;2022-07-03T06:36:13;31.90;99.90
59999;DHT22;45859;51.378;6.736;2022-07-03T06:38:39;31.80;99.90
59999;DHT22;45859;51.378;6.736;2022-07-03T06:41:06;32.30;99.90
59999;DHT22;45859;51.378;6.736;2022-07-03T06:43:32;32.20;99.90
59999;DHT22;45859;51.378;6.736;2022-07-03T06:46:00;32.30;99.90
59999;DHT22;45859;51.378;6.736;2022-07-03T06:48:26;32.30;99.90
59999;DHT22;45859;51.378;6.736;2022-07-03T06:50:52;31.90;99.90
59999;DHT22;45859;51.378;6.736;2022-07-03T06:53:17;32.70;99.90
59999;DHT22;45859;51.378;6.736;2022-07-03T06:55:43;33.30;99.90
59999;DHT22;45859;51.378;6.736;2022-07-03T06:58:09;33.70;99.90
59999;DHT22;45859;51.378;6.736;2022-07-03T07:00:35;33.40;99.90
59999;DHT22;45859;51.378;6.736;2022-07-03T07:03:02;33.30;99.90
59999;DHT22;45859;51.378;6.736;2022-07-03T07:05:28;33.50;99.90
59999;DHT22;45859;51.378;6.736;2022-07-03T07:07:53;33.30;99.90
59999;DHT22;45859;51.378;6.736;2022-07-03T07:10:19;33.70;99.90
59999;DHT22;45859;51.378;6.736;2022-07-03T07:12:45;33.80;99.90
59999;DHT22;45859;51.378;6.736;2022-07-03T07:15:11;34.30;99.90
59999;DHT22;45859;51.378;6.736;2022-07-03T07:17:36;34.00;99.90
59999;DHT22;45859;51.378;6.736;2022-07-03T07:20:03;33.90;99.90
59999;DHT22;45859;51.378;6.736;2022-07-03T07:22:29;33.80;99.90
59999;DHT22;45859;51.378;6.736;2022-07-03T07:24:54;33.30;99.90
59999;DHT22;45859;51.378;6.736;2022-07-03T07:27:20;33.10;99.90
59999;DHT22;45859;51.378;6.736;2022-07-03T07:29:46;32.70;99.90
59999;DHT22;45859;51.378;6.736;2022-07-03T07:32:11;33.30;99.90
59999;DHT22;45859;51.378;6.736;2022-07-03T07:34:37;33.50;99.90
59999;DHT22;45859;51.378;6.736;2022-07-03T07:37:03;33.90;99.90
59999;DHT22;45859;51.378;6.736;2022-07-03T07:39:58;34.10;99.90
59999;DHT22;45859;51.378;6.736;2022-07-03T07:42:24;34.50;99.90
59999;DHT22;45859;51.378;6.736;2022-07-03T07:44:50;34.40;99.90
59999;DHT22;45859;51.378;6.736;2022-07-03T07:47:15;33.80;99.90
59999;DHT22;45859;51.378;6.736;2022-07-03T07:49:41;34.20;99.90
59999;DHT22;45859;51.378;6.736;2022-07-03T07:52:07;34.50;99.90
59999;DHT22;45859;51.378;6.736;2022-07-03T07:54:33;34.50;99.90
59999;DHT22;45859;51.378;6.736;2022-07-03T07:56:58;35.10;99.90
59999;DHT22;45859;51.378;6.736;2022-07-03T07:59:24;34.90;99.90
59999;DHT22;45859;51.378;6.736;2022-07-03T08:01:50;34.90;99.90
59999;DHT22;45859;51.378;6.736;2022-07-03T08:04:34;34.60;99.90
59999;DHT22;45859;51.378;6.736;2022-07-03T08:07:18;34.30;99.90
59999;DHT22;45859;51.378;6.736;2022-07-03T08:09:44;33.90;99.90
59999;DHT22;45859;51.378;6.736;2022-07-03T08:12:10;34.00;99.90
59999;DHT22;45859;51.378;6.736;2022-07-03T08:14:36;34.20;99.90
59999;DHT22;45859;51.378;6.736;2022-07-03T08:17:01;34.20;99.90
59999;DHT22;45859;51.378;6.736;2022-07-03T08:19:27;34.50;99.90
59999;DHT22;45859;51.378;6.736;2022-07-03T08:21:53;34.10;99.90
59999;DHT22;45859;51.378;6.736;2022-07-03T08:24:19;34.70;99.90
59999;DHT22;45859;51.378;6.736;2022-07-03T08:26:44;34.20;99.90
59999;DHT22;45859;51.378;6.736;2022-07-03T08:29:10;33.90;99.90
59999;DHT22;45859;51.378;6.736;2022-07-03T08:31:36;34.00;99.90
59999;DHT22;45859;51.378;6.736;2022-07-03T08:34:02;34.40;99.90
59999;DHT22;45859;51.378;6.736;2022-07-03T08:36:27;34.60;99.90
59999;DHT22;45859;51.378;6.736;2022-07-03T08:38:53;35.10;99.90
59999;DHT22;45859;51.378;6.736;2022-07-03T08:41:20;34.80;99.90
59999;DHT22;45859;51.378;6.736;2022-07-03T08:43:47;34.60;99.90
59999;DHT22;45859;51.378;6.736;2022-07-03T08:46:15;34.30;99.90
59999;DHT22;45859;51.378;6.736;2022-07-03T08:48:41;34.40;99.90
59999;DHT22;45859;51.378;6.736;2022-07-03T08:51:08;34.40;99.90
59999;DHT22;45859;51.378;6.736;2022-07-03T08:53:35;34.20;99.90
59999;DHT22;45859;51.378;6.736;2022-07-03T08:56:03;34.30;99.90
59999;DHT22;45859;51.378;6.736;2022-07-03T08:58:30;34.20;99.90
59999;DHT22;45859;51.378;6.736;2022-07-03T09:00:57;33.70;99.90
59999;DHT22;45859;51.378;6.736;2022-07-03T09:03:24;33.50;99.90
59999;DHT22;45859;51.378;6.736;2022-07-03T09:05:50;33.70;99.90
59999;DHT22;45859;51.378;6.736;2022-07-03T09:08:17;33.40;99.90
59999;DHT22;45859;51.378;6.736;2022-07-03T09:10:47;33.60;99.90
59999;DHT22;45859;51.378;6.736;2022-07-03T09:13:12;33.90;99.90
59999;DHT22;45859;51.378;6.736;2022-07-03T09:15:38;33.80;99.90
59999;DHT22;45859;51.378;6.736;2022-07-03T09:18:06;34.30;99.90
59999;DHT22;45859;51.378;6.736;2022-07-03T09:20:41;34.50;99.90
59999;DHT22;45859;51.378;6.736;2022-07-03T09:23:14;33.80;99.90
59999;DHT22;45859;51.378;6.736;2022-07-03T09:26:00;34.20;99.90
59999;DHT22;45859;51.378;6.736;2022-07-03T09:31:13;33.50;99.90
59999;DHT22;45859;51.378;6.736;2022-07-03T09:34:04;33.70;99.90
59999;DHT22;45859;51.378;6.736;2022-07-03T09:36:50;33.90;99.90
59999;DHT22;45859;51.378;6.736;2022-07-03T09:39:30;33.60;99.90
59999;DHT22;45859;51.378;6.736;2022-07-03T09:42:06;33.40;99.90
59999;DHT22;45859;51.378;6.736;2022-07-03T09:44:36;33.50;99.90
59999;DHT22;45859;51.378;6.736;2022-07-03T09:47:23;33.80;99.90
59999;DHT22;45859;51.378;6.736;2022-07-03T09:50:00;33.50;99.90
59999;DHT22;45859;51.378;6.736;2022-07-03T10:00:41;31.30;99.90
59999;DHT22;45859;51.378;6.736;2022-07-03T10:03:08;30.90;99.90
59999;DHT22;45859;51.378;6.736;2022-07-03T10:05:35;30.60;99.90
59999;DHT22;45859;51.378;6.736;2022-07-03T10:08:06;30.30;99.90
59999;DHT22;45859;51.378;6.736;2022-07-03T10:10:37;29.80;99.90
59999;DHT22;45859;51.378;6.736;2022-07-03T10:13:04;29.70;99.90
59999;DHT22;45859;51.378;6.736;2022-07-03T10:15:32;29.40;99.90
59999;DHT22;45859;51.378;6.736;2022-07-03T10:18:01;29.30;99.90
59999;DHT22;45859;51.378;6.736;2022-07-03T10:23:02;29.30;99.90
59999;DHT22;45859;51.378;6.736;2022-07-03T10:25:30;29.40;99.90
59999;DHT22;45859;51.378;6.736;2022-07-03T10:27:55;29.20;99.90
59999;DHT22;45859;51.378;6.736;2022-07-03T10:30:23;29.00;99.90
59999;DHT22;45859;51.378;6.736;2022-07-03T10:32:51;29.00;99.90
59999;DHT22;45859;51.378;6.736;2022-07-03T10:35:25;29.10;99.90
59999;DHT22;45859;51.378;6.736;2022-07-03T10:40:42;28.80;99.90
59999;DHT22;45859;51.378;6.736;2022-07-03T10:43:31;28.70;99.90
59999;DHT22;45859;51.378;6.736;2022-07-03T10:46:21;28.30;99.90
59999;DHT22;45859;51.378;6.736;2022-07-03T10:51:23;28.00;99.90
59999;DHT22;45859;51.378;6.736;2022-07-03T10:53:49;28.00;99.90
59999;DHT22;45859;51.378;6.736;2022-07-03T10:56:15;27.90;99.90
59999;DHT22;45859;51.378;6.736;2022-07-03T10:58:57;28.00;99.90
59999;DHT22;45859;51.378;6.736;2022-07-03T11:01:28;28.00;99.90
59999;DHT22;45859;51.378;6.736;2022-07-03T11:03:54;28.10;99.90
59999;DHT22;45859;51.378;6.736;2022-07-03T11:09:09;28.20;99.90
59999;DHT22;45859;51.378;6.736;2022-07-03T11:11:43;28.20;99.90
59999;DHT22;45859;51.378;6.736;2022-07-03T11:14:28;28.10;99.90
59999;DHT22;45859;51.378;6.736;2022-07-03T11:17:22;28.00;99.90
59999;DHT22;45859;51.378;6.736;2022-07-03T11:19:49;27.90;99.90
59999;DHT22;45859;51.378;6.736;2022-07-03T11:23:05;27.90;99.90
59999;DHT22;45859;51.378;6.736;2022-07-03T11:25:42;27.90;99.90
59999;DHT22;45859;51.378;6.736;2022-07-03T11:41:27;27.90;99.90
59999;DHT22;45859;51.378;6.736;2022-07-03T11:43:58;27.90;99.90
59999;DHT22;45859;51.378;6.736;2022-07-03T11:46:26;27.90;99.90
59999;DHT22;45859;51.378;6.736;2022-07-03T11:49:08;27.70;99.90
59999;DHT22;45859;51.378;6.736;2022-07-03T11:51:34;27.30;99.90
59999;DHT22;45859;51.378;6.736;2022-07-03T11:54:00;27.40;99.90
59999;DHT22;45859;51.378;6.736;2022-07-03T11:56:27;27.50;99.90
59999;DHT22;45859;51.378;6.736;2022-07-03T11:58:58;27.60;99.90
59999;DHT22;45859;51.378;6.736;2022-07-03T12:06:38;27.30;99.90
59999;DHT22;45859;51.378;6.736;2022-07-03T12:09:24;27.30;99.90
59999;DHT22;45859;51.378;6.736;2022-07-03T12:12:03;27.20;99.90
59999;DHT22;45859;51.378;6.736;2022-07-03T12:14:44;27.30;99.90
59999;DHT22;45859;51.378;6.736;2022-07-03T12:17:22;27.20;99.90
59999;DHT22;45859;51.378;6.736;2022-07-03T12:25:04;27.30;99.90
59999;DHT22;45859;51.378;6.736;2022-07-03T12:27:32;27.30;99.90
59999;DHT22;45859;51.378;6.736;2022-07-03T12:29:59;27.20;99.90
59999;DHT22;45859;51.378;6.736;2022-07-03T12:32:25;27.10;99.90
59999;DHT22;45859;51.378;6.736;2022-07-03T12:34:51;27.20;99.90
59999;DHT22;45859;51.378;6.736;2022-07-03T12:37:17;27.10;99.90
59999;DHT22;45859;51.378;6.736;2022-07-03T12:39:56;27.00;99.90
59999;DHT22;45859;51.378;6.736;2022-07-03T12:42:22;27.10;99.90
59999;DHT22;45859;51.378;6.736;2022-07-03T12:47:21;26.90;99.90
59999;DHT22;45859;51.378;6.736;2022-07-03T12:49:53;26.80;99.90
59999;DHT22;45859;51.378;6.736;2022-07-03T12:52:19;26.80;99.90
59999;DHT22;45859;51.378;6.736;2022-07-03T12:54:44;26.80;99.90
59999;DHT22;45859;51.378;6.736;2022-07-03T12:57:11;26.90;99.90
59999;DHT22;45859;51.378;6.736;2022-07-03T13:00:06;27.00;99.90
59999;DHT22;45859;51.378;6.736;2022-07-03T13:02:33;27.00;99.90
59999;DHT22;45859;51.378;6.736;2022-07-03T13:04:59;27.10;99.90
59999;DHT22;45859;51.378;6.736;2022-07-03T13:07:29;27.20;99.90
59999;DHT22;45859;51.378;6.736;2022-07-03T13:09:59;27.10;99.90
59999;DHT22;45859;51.378;6.736;2022-07-03T13:12:24;27.20;99.90
59999;DHT22;45859;51.378;6.736;2022-07-03T13:15:00;27.10;99.90
59999;DHT22;45859;51.378;6.736;2022-07-03T13:22:49;27.20;99.90
59999;DHT22;45859;51.378;6.736;2022-07-03T13:25:16;27.20;99.90
59999;DHT22;45859;51.378;6.736;2022-07-03T13:27:42;27.10;99.90
59999;DHT22;45859;51.378;6.736;2022-07-03T13:30:09;27.20;99.90
59999;DHT22;45859;51.378;6.736;2022-07-03T13:32:34;27.20;99.90
59999;DHT22;45859;51.378;6.736;2022-07-03T13:35:00;27.30;99.90
59999;DHT22;45859;51.378;6.736;2022-07-03T13:37:26;27.10;99.90
59999;DHT22;45859;51.378;6.736;2022-07-03T13:39:51;27.00;99.90
59999;DHT22;45859;51.378;6.736;2022-07-03T13:42:17;26.90;99.90
59999;DHT22;45859;51.378;6.736;2022-07-03T13:44:43;26.90;99.90
59999;DHT22;45859;51.378;6.736;2022-07-03T13:47:08;26.90;99.90
59999;DHT22;45859;51.378;6.736;2022-07-03T13:49:34;26.80;99.90
59999;DHT22;45859;51.378;6.736;2022-07-03T13:52:00;26.80;99.90
59999;DHT22;45859;51.378;6.736;2022-07-03T13:54:26;26.80;99.90
59999;DHT22;45859;51.378;6.736;2022-07-03T13:56:51;26.80;99.90
59999;DHT22;45859;51.378;6.736;2022-07-03T13:59:17;26.80;99.90
59999;DHT22;45859;51.378;6.736;2022-07-03T14:01:44;26.60;99.90
59999;DHT22;45859;51.378;6.736;2022-07-03T14:04:09;26.50;99.90
59999;DHT22;45859;51.378;6.736;2022-07-03T14:06:35;26.40;99.90
59999;DHT22;45859;51.378;6.736;2022-07-03T14:09:02;26.30;99.90
59999;DHT22;45859;51.378;6.736;2022-07-03T14:11:28;26.30;99.90
59999;DHT22;45859;51.378;6.736;2022-07-03T14:13:53;26.10;99.90
59999;DHT22;45859;51.378;6.736;2022-07-03T14:16:19;26.10;99.90
59999;DHT22;45859;51.378;6.736;2022-07-03T14:18:44;26.20;99.90
59999;DHT22;45859;51.378;6.736;2022-07-03T14:21:10;26.10;99.90
59999;DHT22;45859;51.378;6.736;2022-07-03T14:23:36;26.00;99.90
59999;DHT22;45859;51.378;6.736;2022-07-03T14:26:03;26.10;99.90
59999;DHT22;45859;51.378;6.736;2022-07-03T14:28:28;26.10;99.90
59999;DHT22;45859;51.378;6.736;2022-07-03T14:31:12;26.10;99.90
59999;DHT22;45859;51.378;6.736;2022-07-03T14:33:53;26.20;99.90
59999;DHT22;45859;51.378;6.736;2022-07-03T14:36:19;26.20;99.90
59999;DHT22;45859;51.378;6.736;2022-07-03T14:38:45;26.20;99.90
59999;DHT22;45859;51.378;6.736;2022-07-03T14:41:11;26.20;99.90
59999;DHT22;45859;51.378;6.736;2022-07-03T14:43:37;26.20;99.90
59999;DHT22;45859;51.378;6.736;2022-07-03T14:46:02;26.10;99.90
59999;DHT22;45859;51.378;6.736;2022-07-03T14:48:28;26.10;99.90
59999;DHT22;45859;51.378;6.736;2022-07-03T14:50:54;26.40;99.90
59999;DHT22;45859;51.378;6.736;2022-07-03T14:53:20;26.50;99.90
59999;DHT22;45859;51.378;6.736;2022-07-03T14:55:47;26.50;99.90
59999;DHT22;45859;51.378;6.736;2022-07-03T15:00:51;26.20;99.90
59999;DHT22;45859;51.378;6.736;2022-07-03T15:03:31;26.10;99.90
59999;DHT22;45859;51.378;6.736;2022-07-03T15:06:07;26.10;99.90
59999;DHT22;45859;51.378;6.736;2022-07-03T15:11:13;25.90;99.90
59999;DHT22;45859;51.378;6.736;2022-07-03T15:14:02;25.80;99.90
59999;DHT22;45859;51.378;6.736;2022-07-03T15:16:31;25.70;99.90
59999;DHT22;45859;51.378;6.736;2022-07-03T15:19:00;25.50;99.90
59999;DHT22;45859;51.378;6.736;2022-07-03T15:21:30;25.50;99.90
59999;DHT22;45859;51.378;6.736;2022-07-03T15:24:02;25.40;99.90
59999;DHT22;45859;51.378;6.736;2022-07-03T15:26:30;25.50;99.90
59999;DHT22;45859;51.378;6.736;2022-07-03T15:28:58;25.50;99.90
59999;DHT22;45859;51.378;6.736;2022-07-03T15:31:29;25.50;99.90
59999;DHT22;45859;51.378;6.736;2022-07-03T15:34:02;25.30;99.90
59999;DHT22;45859;51.378;6.736;2022-07-03T15:36:31;25.20;99.90
59999;DHT22;45859;51.378;6.736;2022-07-03T15:39:03;25.10;99.90
59999;DHT22;45859;51.378;6.736;2022-07-03T15:41:47;25.10;99.90
59999;DHT22;45859;51.378;6.736;2022-07-03T15:44:33;25.30;99.90
59999;DHT22;45859;51.378;6.736;2022-07-03T15:47:20;25.50;99.90
59999;DHT22;45859;51.378;6.736;2022-07-03T15:49:56;25.50;99.90
59999;DHT22;45859;51.378;6.736;2022-07-03T15:52:23;25.50;99.90
59999;DHT22;45859;51.378;6.736;2022-07-03T15:55:02;25.40;99.90
59999;DHT22;45859;51.378;6.736;2022-07-03T16:00:14;25.10;99.90
59999;DHT22;45859;51.378;6.736;2022-07-03T16:05:27;25.00;99.90
59999;DHT22;45859;51.378;6.736;2022-07-03T16:07:58;25.10;99.90
59999;DHT22;45859;51.378;6.736;2022-07-03T16:10:25;25.00;99.90
59999;DHT22;45859;51.378;6.736;2022-07-03T16:12:52;24.90;99.90
59999;DHT22;45859;51.378;6.736;2022-07-03T16:15:21;25.00;99.90
59999;DHT22;45859;51.378;6.736;2022-07-03T16:17:52;24.90;99.90
59999;DHT22;45859;51.378;6.736;2022-07-03T16:20:20;24.60;99.90
59999;DHT22;45859;51.378;6.736;2022-07-03T16:22:47;24.60;99.90
59999;DHT22;45859;51.378;6.736;2022-07-03T16:25:13;24.80;99.90
59999;DHT22;45859;51.378;6.736;2022-07-03T16:27:39;24.90;99.90
59999;DHT22;45859;51.378;6.736;2022-07-03T16:30:05;24.90;99.90
59999;DHT22;45859;51.378;6.736;2022-07-03T16:32:40;25.00;99.90
59999;DHT22;45859;51.378;6.736;2022-07-03T16:35:10;25.00;99.90
59999;DHT22;45859;51.378;6.736;2022-07-03T16:37:50;25.00;99.90
59999;DHT22;45859;51.378;6.736;2022-07-03T16:40:18;25.00;99.90
59999;DHT22;45859;51.378;6.736;2022-07-03T16:42:45;25.00;99.90
59999;DHT22;45859;51.378;6.736;2022-07-03T16:45:12;25.00;99.90
59999;DHT22;45859;51.378;6.736;2022-07-03T16:47:49;24.80;99.90
59999;DHT22;45859;51.378;6.736;2022-07-03T16:50:17;24.90;99.90
59999;DHT22;45859;51.378;6.736;2022-07-03T16:52:52;24.70;99.90
59999;DHT22;45859;51.378;6.736;2022-07-03T16:55:20;24.60;99.90
59999;DHT22;45859;51.378;6.736;2022-07-03T16:57:50;24.40;99.90
59999;DHT22;45859;51.378;6.736;2022-07-03T17:00:19;24.40;99.90
59999;DHT22;45859;51.378;6.736;2022-07-03T17:02:45;24.50;99.90
59999;DHT22;45859;51.378;6.736;2022-07-03T17:05:13;24.40;99.90
59999;DHT22;45859;51.378;6.736;2022-07-03T17:07:40;24.30;99.90
59999;DHT22;45859;51.378;6.736;2022-07-03T17:10:11;24.40;99.90
59999;DHT22;45859;51.378;6.736;2022-07-03T17:12:38;24.40;99.90
59999;DHT22;45859;51.378;6.736;2022-07-03T17:15:06;24.40;99.90
59999;DHT22;45859;51.378;6.736;2022-07-03T17:17:32;24.40;99.90
59999;DHT22;45859;51.378;6.736;2022-07-03T17:20:22;24.30;99.90
59999;DHT22;45859;51.378;6.736;2022-07-03T17:22:55;24.10;99.90